KSKF/SKF METAR and TAF weather

Enter ICAO airport designator
Station Type Date Time Source
KSKF METAR 2020/07/10 17:56 UTC NOAA

KSKF 101756Z 16008KT 10SM FEW040 34/22 A3000 RMK AO2A SLP150 T03440224 10344 20261 57004 $


Station Type Date Time Source
KSKF Decoded METAR 2020/07/10 17:56 UTC NOAA

Kelly Air Force Base, TX, United States (KSKF) 29-23N 098-35W
Jul 10, 2020 - 01:56 PM EDT / 2020.07.10 1756 UTC
Wind: from the SSE (160 degrees) at 9 MPH (8 KT):0
Visibility: 10 mile(s):0
Sky conditions: mostly clear
Temperature: 93.9 F (34.4 C)
Heat index: 102.0 F (38.9 C):1
Dew Point: 72.3 F (22.4 C)
Relative Humidity: 49%
Pressure (altimeter): 30 in. Hg (1015 hPa)
Pressure tendency: 0.01 inches (0.4 hPa) lower than three hours ago
ob: KSKF 101756Z 16008KT 10SM FEW040 34/22 A3000 RMK AO2A SLP150 T03440224 10344 20261 57004
cycle: 18

Station Type Date Time Source
KSKF TAF 2020/07/10 18:24 UTC NOAA

TAF KSKF 101800Z 1018/1124 14012KT 9999 FEW045 QNH2989INS
TEMPO 1023/1106 13014G20KT
BECMG 1107/1108 15006KT 9999 BKN018 QNH2998INS
TEMPO 1108/1114 SCT015 BKN020
BECMG 1113/1114 18009KT 9999 SCT020 QNH2994INS
BECMG 1117/1118 17012KT 9999 FEW040 QNH2988INS TX38/1022Z TN25/1112Z

Example: see airport list